createdAt,value
2022-09-23T00:00:00.289Z,0.0
2022-09-23T00:05:01.038Z,0.0
2022-09-23T00:10:00.246Z,0.0
2022-09-23T00:15:00.267Z,0.0
2022-09-23T00:20:00.981Z,0.0
2022-09-23T00:25:00.242Z,0.0
2022-09-23T00:30:00.271Z,0.0
2022-09-23T00:35:00.844Z,0.0
2022-09-23T00:40:00.248Z,0.0
2022-09-23T00:45:00.260Z,0.0
2022-09-23T00:50:00.835Z,0.0
2022-09-23T00:55:00.225Z,0.0
2022-09-23T01:00:00.452Z,0.0
2022-09-23T01:05:00.874Z,0.0
2022-09-23T01:10:00.311Z,0.0
2022-09-23T01:15:00.289Z,0.0
2022-09-23T01:20:00.859Z,0.0
2022-09-23T01:25:00.211Z,0.0
2022-09-23T01:30:00.287Z,0.0
2022-09-23T01:35:01.108Z,0.0
2022-09-23T01:40:00.267Z,0.0
2022-09-23T01:45:00.274Z,0.0
2022-09-23T01:50:00.847Z,0.0
2022-09-23T01:55:00.255Z,0.0
2022-09-23T02:00:00.351Z,0.0
2022-09-23T02:05:01.026Z,0.0
2022-09-23T02:10:00.272Z,0.0
2022-09-23T02:15:00.709Z,0.0
2022-09-23T02:20:00.894Z,0.0
2022-09-23T02:25:00.258Z,0.0
2022-09-23T02:30:00.293Z,0.0
2022-09-23T02:35:00.882Z,0.0
2022-09-23T02:40:00.254Z,0.0
2022-09-23T02:45:00.264Z,0.0
2022-09-23T02:50:00.885Z,0.0
2022-09-23T02:55:00.296Z,0.0
2022-09-23T03:00:00.252Z,0.0
2022-09-23T03:05:01.043Z,0.0
2022-09-23T03:10:00.274Z,0.0
2022-09-23T03:15:00.268Z,0.0
2022-09-23T03:20:00.931Z,0.0
2022-09-23T03:25:00.391Z,0.0
2022-09-23T03:30:00.267Z,0.0
2022-09-23T03:35:00.967Z,0.0
2022-09-23T03:40:00.259Z,0.0
2022-09-23T03:45:00.268Z,0.0
2022-09-23T03:50:00.986Z,0.0
2022-09-23T03:55:00.265Z,0.0
2022-09-23T04:00:00.312Z,0.0
2022-09-23T04:05:00.907Z,0.0
2022-09-23T04:10:00.277Z,0.0
2022-09-23T04:15:00.287Z,0.0
2022-09-23T04:20:00.932Z,0.0
2022-09-23T04:25:00.221Z,0.0
2022-09-23T04:30:00.255Z,0.0
2022-09-23T04:35:00.957Z,0.0
2022-09-23T04:40:00.258Z,0.0
2022-09-23T04:45:00.253Z,0.0
2022-09-23T04:50:00.939Z,0.0
2022-09-23T04:55:00.371Z,0.0
2022-09-23T05:00:00.309Z,0.0
2022-09-23T05:05:00.998Z,0.0
2022-09-23T05:10:00.274Z,0.0
2022-09-23T05:15:00.274Z,0.0
2022-09-23T05:20:00.961Z,0.0
2022-09-23T05:25:00.284Z,0.0
2022-09-23T05:30:00.273Z,0.0
2022-09-23T05:35:01.009Z,0.0
2022-09-23T05:40:00.265Z,0.0
2022-09-23T05:45:00.272Z,0.0
2022-09-23T05:50:01.106Z,0.0
2022-09-23T05:55:00.263Z,0.0
2022-09-23T06:00:00.275Z,0.0
2022-09-23T06:05:01.162Z,0.0
2022-09-23T06:10:00.268Z,0.0
2022-09-23T06:15:00.237Z,0.0
2022-09-23T06:20:01.006Z,0.0
2022-09-23T06:25:00.240Z,0.0
2022-09-23T06:30:00.269Z,0.0
2022-09-23T06:35:01.010Z,0.0
2022-09-23T06:40:00.253Z,0.0
2022-09-23T06:45:00.262Z,0.0
2022-09-23T06:50:01.847Z,0.0
2022-09-23T06:55:00.276Z,0.2
2022-09-23T07:00:00.286Z,0.0
2022-09-23T07:05:00.214Z,0.0
2022-09-23T07:10:00.251Z,0.1
2022-09-23T07:15:00.273Z,0.9
2022-09-23T07:20:00.255Z,0.2
2022-09-23T07:25:00.246Z,0.8
2022-09-23T07:30:00.277Z,0.1
2022-09-23T07:35:03.061Z,0.2
2022-09-23T07:40:00.265Z,0.0
2022-09-23T07:45:00.246Z,0.0
2022-09-23T07:50:00.352Z,0.0
2022-09-23T07:55:00.240Z,2.3
2022-09-23T08:00:00.287Z,0.3
2022-09-23T08:05:00.290Z,1.3
2022-09-23T08:10:00.270Z,1.6
2022-09-23T08:15:00.242Z,0.2
2022-09-23T08:20:00.256Z,0.4
2022-09-23T08:25:00.242Z,3.0
2022-09-23T08:30:00.257Z,3.0
2022-09-23T08:35:00.314Z,4.0
2022-09-23T08:40:00.257Z,3.0
2022-09-23T08:45:00.255Z,2.7
2022-09-23T08:50:00.284Z,1.5
2022-09-23T08:55:00.279Z,1.0
2022-09-23T09:00:00.353Z,3.9
2022-09-23T09:05:00.234Z,2.2
2022-09-23T09:10:00.308Z,2.9
2022-09-23T09:15:01.324Z,2.2
2022-09-23T09:20:00.232Z,2.2
2022-09-23T09:25:00.231Z,3.9
2022-09-23T09:30:00.271Z,1.7
2022-09-23T09:35:00.320Z,4.6
2022-09-23T09:40:00.345Z,0.5
2022-09-23T09:45:00.292Z,3.0
2022-09-23T09:50:00.247Z,5.4
2022-09-23T09:55:00.194Z,3.9
2022-09-23T10:00:00.227Z,7.4
2022-09-23T10:05:00.174Z,4.6
2022-09-23T10:10:22.012Z,5.0
2022-09-23T10:15:00.184Z,4.6
2022-09-23T10:20:00.345Z,5.5
2022-09-23T10:25:00.189Z,5.2
2022-09-23T10:30:00.207Z,5.8
2022-09-23T10:35:00.172Z,5.6
2022-09-23T10:40:00.241Z,5.5
2022-09-23T10:45:00.189Z,3.0
2022-09-23T10:50:00.201Z,3.2
2022-09-23T10:55:00.207Z,2.8
2022-09-23T11:00:01.154Z,1.0
2022-09-23T11:05:00.380Z,3.4
2022-09-23T11:10:00.229Z,0.9
2022-09-23T11:15:00.278Z,2.1
2022-09-23T11:20:00.219Z,0.8
2022-09-23T11:25:00.294Z,4.6
2022-09-23T11:30:00.230Z,3.7
2022-09-23T11:35:00.195Z,1.4
2022-09-23T11:40:00.219Z,1.2
2022-09-23T11:45:00.258Z,0.3
2022-09-23T11:50:00.214Z,3.2
2022-09-23T11:55:05.440Z,4.3
2022-09-23T12:00:00.379Z,0.7
2022-09-23T12:05:01.207Z,2.1
2022-09-23T12:10:00.248Z,4.5
2022-09-23T12:15:00.224Z,0.6
2022-09-23T12:20:00.339Z,0.6
2022-09-23T12:25:00.200Z,3.6
2022-09-23T12:30:00.254Z,2.6
2022-09-23T12:35:00.232Z,0.1
2022-09-23T12:40:00.407Z,1.3
2022-09-23T12:45:00.231Z,0.9
2022-09-23T12:50:00.225Z,0.4
2022-09-23T12:55:00.473Z,4.4
2022-09-23T13:00:00.532Z,5.1
2022-09-23T13:05:00.203Z,4.2
2022-09-23T13:10:00.279Z,1.0
2022-09-23T13:15:00.239Z,3.2
2022-09-23T13:20:00.309Z,5.0
2022-09-23T13:25:01.347Z,2.7
2022-09-23T13:30:00.684Z,0.0
2022-09-23T13:35:00.263Z,2.6
2022-09-23T13:45:00.234Z,2.1
2022-09-23T13:50:00.279Z,0.2
2022-09-23T13:55:00.217Z,1.1
2022-09-23T14:00:00.261Z,3.4
2022-09-23T14:05:00.214Z,3.0
2022-09-23T14:10:00.228Z,4.0
2022-09-23T14:15:00.215Z,2.3
2022-09-23T14:20:00.254Z,3.5
2022-09-23T14:25:00.221Z,2.0
2022-09-23T14:30:00.294Z,1.8
2022-09-23T14:35:00.240Z,1.4
2022-09-23T14:40:00.256Z,0.9
2022-09-23T14:45:00.214Z,1.3
2022-09-23T14:50:00.285Z,0.4
2022-09-23T14:55:00.240Z,3.2
2022-09-23T15:00:00.267Z,0.7
2022-09-23T15:05:00.239Z,0.5
2022-09-23T15:10:00.261Z,0.7
2022-09-23T15:15:00.221Z,2.1
2022-09-23T15:20:00.277Z,1.1
2022-09-23T15:25:00.237Z,1.1
2022-09-23T15:30:01.126Z,0.9
2022-09-23T15:35:00.203Z,0.1
2022-09-23T15:40:00.255Z,0.0
2022-09-23T15:45:00.291Z,0.0
2022-09-23T15:50:00.278Z,0.0
2022-09-23T15:55:00.245Z,0.6
2022-09-23T16:00:00.282Z,0.0
2022-09-23T16:05:00.230Z,0.9
2022-09-23T16:10:00.240Z,0.0
2022-09-23T16:15:00.395Z,0.2
2022-09-23T16:20:00.256Z,0.7
2022-09-23T16:25:00.225Z,0.0
2022-09-23T16:30:00.289Z,0.0
2022-09-23T16:35:00.231Z,0.1
2022-09-23T16:40:00.255Z,0.0
2022-09-23T16:45:00.299Z,0.0
2022-09-23T16:50:00.351Z,0.4
2022-09-23T16:55:00.420Z,0.1
2022-09-23T17:00:00.487Z,0.0
2022-09-23T17:05:00.423Z,0.0
2022-09-23T17:10:00.410Z,0.0
2022-09-23T17:15:00.258Z,0.0
2022-09-23T17:20:00.256Z,0.0
2022-09-23T17:25:00.378Z,0.0
2022-09-23T17:30:00.295Z,0.0
2022-09-23T17:35:00.228Z,0.0
2022-09-23T17:40:00.277Z,0.0
2022-09-23T17:45:00.268Z,0.0
2022-09-23T17:50:00.284Z,0.0
2022-09-23T17:55:00.257Z,0.0
2022-09-23T18:00:00.271Z,0.0
2022-09-23T18:05:00.213Z,0.0
2022-09-23T18:10:00.304Z,0.0
2022-09-23T18:15:00.251Z,0.0
2022-09-23T18:20:00.293Z,0.0
2022-09-23T18:25:00.248Z,0.0
2022-09-23T18:30:00.293Z,0.0
2022-09-23T18:35:00.243Z,0.0
2022-09-23T18:40:00.281Z,0.0
2022-09-23T18:45:00.259Z,0.0
2022-09-23T18:50:00.307Z,0.0
2022-09-23T18:55:00.233Z,0.0
2022-09-23T19:00:00.325Z,0.0
2022-09-23T19:10:00.322Z,0.0
2022-09-23T19:15:00.260Z,0.0
2022-09-23T19:20:00.263Z,0.0
2022-09-23T19:25:00.230Z,0.0
2022-09-23T19:30:00.631Z,0.0
2022-09-23T19:35:00.473Z,0.0
2022-09-23T19:40:00.256Z,0.0
2022-09-23T19:45:00.620Z,0.0
2022-09-23T19:50:00.253Z,0.0
2022-09-23T19:55:00.259Z,0.0
2022-09-23T20:00:00.378Z,0.0
2022-09-23T20:05:00.242Z,0.0
2022-09-23T20:10:00.312Z,0.0
2022-09-23T20:15:00.675Z,0.0
2022-09-23T20:20:01.695Z,0.0
2022-09-23T20:25:00.277Z,0.0
2022-09-23T20:30:00.265Z,0.0
2022-09-23T20:35:00.261Z,0.0
2022-09-23T20:40:00.268Z,0.0
2022-09-23T20:45:00.248Z,0.0
2022-09-23T20:50:00.283Z,0.0
2022-09-23T20:55:00.264Z,0.0
2022-09-23T21:00:00.299Z,0.0
2022-09-23T21:05:00.288Z,0.0
2022-09-23T21:10:00.311Z,0.0
2022-09-23T21:15:00.228Z,0.0
2022-09-23T21:20:00.269Z,0.0
2022-09-23T21:25:27.787Z,0.0
2022-09-23T21:30:00.272Z,0.0
2022-09-23T21:35:00.239Z,0.0
2022-09-23T21:40:00.268Z,0.0
2022-09-23T21:45:00.259Z,0.0
2022-09-23T21:50:00.262Z,0.0
2022-09-23T21:55:00.298Z,0.0
2022-09-23T22:00:00.363Z,0.0
2022-09-23T22:05:00.253Z,0.0
2022-09-23T22:10:00.321Z,0.0
2022-09-23T22:15:00.297Z,0.0
2022-09-23T22:20:00.278Z,0.0
2022-09-23T22:25:00.275Z,0.0
2022-09-23T22:30:00.323Z,0.0
2022-09-23T22:35:00.246Z,0.0
2022-09-23T22:40:00.252Z,0.0
2022-09-23T22:45:00.269Z,0.0
2022-09-23T22:50:00.295Z,0.0
2022-09-23T22:55:00.260Z,0.0
2022-09-23T23:00:00.308Z,0.0
2022-09-23T23:05:00.257Z,0.0
2022-09-23T23:10:00.294Z,0.0
2022-09-23T23:15:00.244Z,0.0
2022-09-23T23:20:00.317Z,0.0
2022-09-23T23:25:00.247Z,0.0
2022-09-23T23:30:00.343Z,0.0
2022-09-23T23:35:00.235Z,0.0
2022-09-23T23:40:00.341Z,0.0
2022-09-23T23:45:00.260Z,0.0
2022-09-23T23:50:00.286Z,0.0
2022-09-23T23:55:00.278Z,0.0
